Time;durP1;ratioP1;P1;durP2;ratioP2;P2;SDS_P1;SDS_P2;PMS_P1;PMS_P2;Temp;Humidity;BMP_temperature;BMP_pressure;BME280_temperature;BME280_humidity;BME280_pressure;Samples;Min_cycle;Max_cycle;Signal;HPM_P1;HPM_P2
2023/03/19 00:00:47;;;;;;;17.97;9.70;;;;;;;7.77;63.47;96193.59;10410628;28;20187;-54
2023/03/19 00:05:52;;;;;;;16.73;9.20;;;;;;;7.70;64.47;96203.78;10414051;28;20262;-54
2023/03/19 00:10:52;;;;;;;16.00;8.73;;;;;;;7.60;64.79;96219.53;10418646;28;20197;-57
2023/03/19 00:15:52;;;;;;;16.57;8.90;;;;;;;7.65;65.04;96219.06;10418244;28;20575;-56
2023/03/19 00:20:53;;;;;;;14.83;9.50;;;;;;;7.53;65.29;96228.09;10418155;28;20680;-57
2023/03/19 00:25:53;;;;;;;15.00;9.20;;;;;;;7.43;65.97;96225.56;10417566;28;20599;-54
2023/03/19 00:30:54;;;;;;;16.87;9.60;;;;;;;7.35;66.17;96220.28;10417759;28;20698;-55
2023/03/19 00:35:54;;;;;;;21.13;9.97;;;;;;;7.41;66.01;96224.88;10417345;28;20208;-59
2023/03/19 00:40:55;;;;;;;17.17;7.60;;;;;;;7.53;64.93;96215.06;10417483;28;20185;-58
2023/03/19 00:45:55;;;;;;;21.53;9.27;;;;;;;7.61;65.29;96217.72;10417405;28;20298;-56
2023/03/19 00:51:01;;;;;;;18.63;10.40;;;;;;;7.56;65.45;96230.41;10417059;28;20185;-57
2023/03/19 00:56:01;;;;;;;14.80;9.63;;;;;;;7.50;65.78;96234.41;10416968;28;20292;-61
2023/03/19 01:01:02;;;;;;;15.80;9.53;;;;;;;7.56;65.57;96230.41;10416603;28;20682;-58
2023/03/19 01:06:03;;;;;;;16.37;8.67;;;;;;;7.36;66.59;96240.97;10415858;28;20714;-58
2023/03/19 01:11:10;;;;;;;17.07;9.13;;;;;;;7.36;67.17;96243.56;10416166;28;20184;-53
2023/03/19 01:16:11;;;;;;;16.97;9.10;;;;;;;7.44;66.23;96233.25;10413421;28;20181;-56
2023/03/19 01:21:11;;;;;;;16.50;9.07;;;;;;;7.44;67.21;96232.41;10414490;28;20207;-60
2023/03/19 01:26:18;;;;;;;14.60;8.37;;;;;;;7.35;66.89;96223.72;10414399;28;20227;-55
2023/03/19 01:31:20;;;;;;;21.07;9.53;;;;;;;7.25;67.27;96222.94;10413924;28;20188;-58
2023/03/19 01:36:30;;;;;;;17.73;7.97;;;;;;;7.34;66.77;96208.22;10392219;28;20196;-54
2023/03/19 01:41:41;;;;;;;19.97;9.63;;;;;;;7.19;67.51;96218.34;10434930;28;20210;-57
2023/03/19 01:47:02;;;;;;;17.73;9.13;;;;;;;7.27;66.95;96210.59;10443820;28;20237;-60
2023/03/19 01:52:11;;;;;;;16.30;8.73;;;;;;;7.47;66.60;96211.25;10453513;28;20210;-60
2023/03/19 01:57:35;;;;;;;14.53;9.00;;;;;;;7.46;67.05;96220.06;10434071;28;20637;-60
2023/03/19 02:02:40;;;;;;;20.20;9.13;;;;;;;7.27;67.76;96231.44;10417435;28;20228;-60
2023/03/19 02:07:52;;;;;;;15.33;8.13;;;;;;;7.43;67.60;96228.19;10413430;28;20220;-58
2023/03/19 02:12:52;;;;;;;14.60;8.90;;;;;;;7.26;68.28;96235.03;10412502;28;20283;-60
2023/03/19 02:17:53;;;;;;;16.70;8.80;;;;;;;7.16;68.69;96231.66;10413078;28;20196;-59
2023/03/19 02:22:58;;;;;;;15.80;9.03;;;;;;;6.99;69.15;96235.88;10395430;28;20232;-59
2023/03/19 02:28:00;;;;;;;18.23;8.90;;;;;;;7.27;68.42;96231.44;10411458;28;20275;-58
2023/03/19 02:33:01;;;;;;;14.73;8.67;;;;;;;6.89;69.76;96241.94;10412028;28;20229;-59
2023/03/19 02:38:03;;;;;;;16.07;8.70;;;;;;;7.00;70.48;96256.56;10411381;28;20725;-56
2023/03/19 02:43:05;;;;;;;12.50;7.57;;;;;;;6.72;72.53;96287.78;10411810;28;20652;-61
2023/03/19 02:48:05;;;;;;;13.10;7.93;;;;;;;6.32;74.81;96298.44;10396931;28;20319;-62
2023/03/19 02:53:07;;;;;;;14.30;8.27;;;;;;;6.00;76.31;96305.63;10370672;28;20818;-62
2023/03/19 02:58:07;;;;;;;18.27;8.50;;;;;;;5.69;77.43;96300.50;10370914;28;20339;-61
2023/03/19 03:03:08;;;;;;;14.70;7.77;;;;;;;5.55;78.48;96306.13;10385494;28;20262;-62
2023/03/19 03:08:09;;;;;;;16.57;8.77;;;;;;;5.58;78.69;96299.84;10370569;28;20224;-61
2023/03/19 03:13:10;;;;;;;14.20;8.80;;;;;;;5.98;77.33;96291.91;10370207;28;20213;-61
2023/03/19 03:18:10;;;;;;;19.33;9.07;;;;;;;6.33;75.54;96271.47;10369899;28;20293;-61
2023/03/19 03:23:10;;;;;;;19.83;9.50;;;;;;;6.84;72.00;96238.94;10368802;28;20656;-61
2023/03/19 03:28:11;;;;;;;18.97;9.17;;;;;;;7.20;69.13;96202.56;10369567;28;20275;-61
2023/03/19 03:33:11;;;;;;;18.83;10.00;;;;;;;7.46;67.74;96175.75;10369893;28;20248;-60
2023/03/19 03:38:12;;;;;;;17.30;9.37;;;;;;;7.73;65.87;96151.34;10368476;28;20193;-59
2023/03/19 03:43:12;;;;;;;20.07;9.77;;;;;;;7.62;66.30;96160.22;10377380;28;20615;-59
2023/03/19 03:48:14;;;;;;;17.20;8.27;;;;;;;7.50;66.50;96174.47;10376570;28;20224;-58
2023/03/19 03:53:15;;;;;;;16.20;8.80;;;;;;;7.40;66.95;96186.78;10377761;28;20235;-57
2023/03/19 03:58:16;;;;;;;17.50;9.50;;;;;;;7.34;67.29;96188.19;10376259;28;20189;-58
2023/03/19 04:03:17;;;;;;;14.27;9.50;;;;;;;7.64;65.03;96160.06;10388683;28;20212;-60
2023/03/19 04:08:17;;;;;;;14.47;8.37;;;;;;;7.81;64.42;96146.19;10416524;28;20235;-60
2023/03/19 04:13:18;;;;;;;14.53;8.83;;;;;;;7.88;64.40;96148.19;10418402;28;20295;-56
2023/03/19 04:18:18;;;;;;;20.17;10.10;;;;;;;7.83;63.92;96146.84;10418384;28;20181;-59
2023/03/19 04:23:19;;;;;;;19.37;9.20;;;;;;;7.97;63.26;96131.63;10417332;28;20235;-60
2023/03/19 04:28:19;;;;;;;21.23;10.23;;;;;;;7.93;63.45;96138.09;10452512;28;20307;-60
2023/03/19 04:33:20;;;;;;;19.63;9.33;;;;;;;7.82;63.47;96141.78;10457078;28;20216;-61
2023/03/19 04:38:21;;;;;;;19.70;9.67;;;;;;;7.83;63.43;96131.22;10458381;28;20656;-59
2023/03/19 04:43:22;;;;;;;16.63;9.17;;;;;;;7.79;64.10;96148.13;10428730;28;20274;-61
2023/03/19 04:48:24;;;;;;;16.13;9.33;;;;;;;7.62;64.18;96156.81;10415324;28;20209;-58
2023/03/19 04:53:26;;;;;;;15.03;8.40;;;;;;;7.71;63.97;96155.91;10431262;28;20212;-60
2023/03/19 04:58:27;;;;;;;15.63;6.43;;;;;;;7.64;64.33;96157.47;10414377;28;20218;-61
2023/03/19 05:03:33;;;;;;;18.47;9.27;;;;;;;7.56;64.40;96167.84;10414371;28;20212;-59
2023/03/19 05:08:33;;;;;;;16.37;8.87;;;;;;;7.46;65.16;96171.34;10415239;28;20220;-57
2023/03/19 05:13:34;;;;;;;15.90;9.43;;;;;;;7.36;64.69;96181.03;10415416;28;20213;-59
2023/03/19 05:18:34;;;;;;;16.83;10.17;;;;;;;7.32;65.57;96174.50;10413963;28;20628;-59
2023/03/19 05:23:37;;;;;;;20.17;9.50;;;;;;;7.22;65.62;96194.59;10444739;22;20240;-63
2023/03/19 05:28:42;;;;;;;16.33;9.47;;;;;;;7.30;65.35;96179.03;10410468;28;20585;-63
2023/03/19 05:33:42;;;;;;;15.40;8.63;;;;;;;7.33;66.03;96181.34;10398405;28;20703;-62
2023/03/19 05:38:43;;;;;;;19.13;9.63;;;;;;;7.43;65.01;96181.28;10388955;28;20312;-60
2023/03/19 05:43:50;;;;;;;22.03;10.20;;;;;;;7.35;65.77;96200.25;10388294;28;20585;-62
2023/03/19 05:49:07;;;;;;;14.90;9.27;;;;;;;7.46;65.54;96202.63;10405691;28;20220;-61
2023/03/19 05:54:07;;;;;;;16.50;9.33;;;;;;;7.59;64.91;96199.63;10373568;28;20209;-60
2023/03/19 05:59:10;;;;;;;17.83;8.33;;;;;;;7.77;64.29;96194.41;10388222;28;20186;-62
2023/03/19 06:04:15;;;;;;;16.63;8.93;;;;;;;7.83;64.13;96188.56;10387598;28;20205;-62
2023/03/19 06:09:16;;;;;;;19.20;9.07;;;;;;;7.97;63.05;96175.97;10387586;28;20223;-62
2023/03/19 06:14:19;;;;;;;15.27;8.73;;;;;;;8.09;63.16;96182.56;10387807;28;20654;-63
2023/03/19 06:19:36;;;;;;;16.53;8.87;;;;;;;8.21;63.22;96181.31;10387196;28;20620;-63
2023/03/19 06:24:37;;;;;;;16.93;9.53;;;;;;;8.42;62.45;96176.69;10403956;28;20318;-63
2023/03/19 06:29:37;;;;;;;18.47;9.30;;;;;;;8.57;62.23;96172.53;10386817;28;20225;-63
2023/03/19 06:34:50;;;;;;;16.30;8.53;;;;;;;8.56;61.86;96171.72;10386910;28;20205;-64
2023/03/19 06:39:53;;;;;;;16.23;8.90;;;;;;;8.85;61.18;96156.63;10386469;28;20194;-64
2023/03/19 06:44:53;;;;;;;20.97;10.33;;;;;;;8.81;61.19;96165.78;10371426;28;20715;-63
2023/03/19 06:49:54;;;;;;;21.00;10.27;;;;;;;8.91;62.10;96188.19;10371204;28;20236;-63
2023/03/19 06:54:54;;;;;;;17.80;9.70;;;;;;;9.02;60.97;96183.59;10371078;28;20240;-64
2023/03/19 06:59:55;;;;;;;17.80;8.03;;;;;;;9.27;59.81;96167.00;10371010;28;20200;-64
2023/03/19 07:04:55;;;;;;;16.60;9.33;;;;;;;9.45;60.33;96181.75;10346965;28;20300;-64
2023/03/19 07:09:55;;;;;;;15.23;8.47;;;;;;;9.70;59.55;96185.16;10329781;28;20667;-64
2023/03/19 07:14:56;;;;;;;14.10;8.67;;;;;;;9.57;59.56;96176.97;10329077;28;20585;-63
2023/03/19 07:19:56;;;;;;;16.27;10.00;;;;;;;9.79;58.82;96181.56;10329504;28;20212;-64
2023/03/19 07:24:56;;;;;;;31.90;16.10;;;;;;;9.86;59.23;96184.31;10329767;28;20239;-64
2023/03/19 07:29:57;;;;;;;19.50;9.13;;;;;;;10.14;58.43;96174.31;10329167;28;20320;-64
2023/03/19 07:34:57;;;;;;;14.30;7.97;;;;;;;10.34;57.85;96174.78;10329174;28;20276;-64
2023/03/19 07:39:58;;;;;;;13.68;7.25;;;;;;;10.52;56.92;96145.78;10329416;28;20194;-63
2023/03/19 07:44:58;;;;;;;13.40;8.35;;;;;;;10.85;56.88;96155.28;10328883;28;20209;-64
2023/03/19 07:49:58;;;;;;;18.08;8.70;;;;;;;11.01;56.68;96151.72;10329240;28;20233;-64
2023/03/19 07:54:59;;;;;;;13.23;7.50;;;;;;;11.13;56.76;96158.22;10328718;28;20221;-64
2023/03/19 07:59:59;;;;;;;14.60;7.93;;;;;;;11.45;55.45;96150.31;10328852;28;20333;-63
2023/03/19 08:05:01;;;;;;;18.60;8.18;;;;;;;11.51;55.39;96154.84;10409046;28;20220;-64
2023/03/19 08:10:02;;;;;;;15.88;7.57;;;;;;;11.78;55.66;96159.53;10409664;28;20550;-64
2023/03/19 08:15:03;;;;;;;12.68;7.45;;;;;;;12.05;55.66;96177.53;10360368;28;20283;-63
2023/03/19 08:20:05;;;;;;;13.00;7.28;;;;;;;12.46;55.59;96188.41;10346270;28;20787;-64
2023/03/19 08:25:06;;;;;;;12.20;7.00;;;;;;;13.16;54.36;96181.00;10335711;28;20237;-64
2023/03/19 08:30:08;;;;;;;13.48;6.65;;;;;;;13.22;53.86;96178.63;10335770;28;20202;-64
2023/03/19 08:35:09;;;;;;;12.98;6.50;;;;;;;13.03;53.61;96158.00;10335377;28;20214;-64
2023/03/19 08:40:10;;;;;;;13.57;7.35;;;;;;;13.62;53.06;96171.16;10335703;28;20627;-64
2023/03/19 08:45:12;;;;;;;11.02;6.40;;;;;;;13.41;53.92;96177.22;10334946;28;20256;-63
2023/03/19 08:50:14;;;;;;;13.05;6.72;;;;;;;13.42;54.58;96211.25;10335159;28;20198;-63
2023/03/19 08:55:15;;;;;;;10.63;6.30;;;;;;;13.56;54.59;96213.00;10334825;28;20220;-62
2023/03/19 09:00:16;;;;;;;12.90;6.93;;;;;;;13.92;53.01;96190.25;10334579;28;20201;-63
2023/03/19 09:05:19;;;;;;;12.45;6.43;;;;;;;14.27;53.53;96203.47;10334883;28;20317;-63
2023/03/19 09:10:19;;;;;;;13.68;6.63;;;;;;;14.28;52.96;96195.34;10334024;28;20254;-63
2023/03/19 09:15:19;;;;;;;18.80;7.47;;;;;;;14.15;54.21;96219.00;10334316;28;20265;-62
2023/03/19 09:20:20;;;;;;;15.18;8.68;;;;;;;13.64;54.72;96214.69;10333695;28;20190;-61
2023/03/19 09:25:20;;;;;;;14.35;8.00;;;;;;;14.39;54.34;96238.81;10356737;28;20240;-62
2023/03/19 09:30:21;;;;;;;14.80;7.55;;;;;;;13.97;55.12;96240.53;10373607;28;20205;-63
2023/03/19 09:35:21;;;;;;;13.82;7.97;;;;;;;15.10;52.63;96208.81;10373052;28;20219;-64
2023/03/19 09:40:26;;;;;;;14.98;7.97;;;;;;;15.39;52.01;96206.03;10372321;28;20196;-63
2023/03/19 09:45:28;;;;;;;17.10;8.48;;;;;;;15.12;51.88;96188.31;10372591;28;20221;-63
2023/03/19 09:50:33;;;;;;;17.20;8.70;;;;;;;14.74;52.17;96172.13;10373443;28;20239;-63
2023/03/19 09:55:42;;;;;;;19.73;8.75;;;;;;;15.19;53.28;96222.66;10373562;28;20236;-62
2023/03/19 10:00:46;;;;;;;15.68;8.15;;;;;;;16.02;50.19;96160.84;10372252;28;20260;-63
2023/03/19 10:05:55;;;;;;;16.98;8.05;;;;;;;15.13;52.79;96200.50;10371960;28;20245;-61
2023/03/19 10:11:23;;;;;;;18.40;9.32;;;;;;;14.04;54.49;96203.69;10373443;28;20660;-62
2023/03/19 10:16:25;;;;;;;15.13;8.75;;;;;;;13.84;54.95;96209.63;10371611;28;20211;-60
2023/03/19 10:21:35;;;;;;;14.95;7.82;;;;;;;14.90;52.31;96176.25;10371961;28;20569;-62
2023/03/19 10:26:35;;;;;;;14.85;8.20;;;;;;;16.11;50.58;96187.84;10359120;28;20233;-63
2023/03/19 10:31:43;;;;;;;15.95;8.65;;;;;;;16.35;50.22;96176.66;10330762;28;20292;-63
2023/03/19 10:36:44;;;;;;;21.67;8.25;;;;;;;17.59;47.65;96147.44;10328816;28;20276;-63
2023/03/19 10:41:50;;;;;;;16.92;8.52;;;;;;;18.47;45.99;96128.97;10330348;28;20212;-64
2023/03/19 10:46:50;;;;;;;17.83;8.20;;;;;;;18.45;45.59;96125.72;10347498;28;20887;-63
2023/03/19 10:51:51;;;;;;;19.40;8.30;;;;;;;16.10;49.70;96147.41;10370176;28;20197;-63
2023/03/19 10:56:55;;;;;;;17.60;8.85;;;;;;;17.08;49.04;96162.41;10370340;28;20287;-63
2023/03/19 11:02:00;;;;;;;16.45;8.68;;;;;;;17.59;48.31;96162.53;10369791;28;20185;-62
2023/03/19 11:07:05;;;;;;;13.93;7.53;;;;;;;18.58;45.77;96122.13;10369728;28;20225;-63
2023/03/19 11:12:13;;;;;;;16.50;7.28;;;;;;;19.41;45.18;96139.25;10368120;28;20729;-63
2023/03/19 11:17:35;;;;;;;10.93;6.72;;;;;;;19.40;44.30;96113.69;10368046;28;20702;-63
2023/03/19 11:22:38;;;;;;;12.45;7.40;;;;;;;19.57;45.12;96127.13;10368592;28;20239;-64
2023/03/19 11:27:39;;;;;;;12.20;7.35;;;;;;;19.24;45.32;96129.25;10411214;23;20267;-61
2023/03/19 11:33:01;;;;;;;13.02;7.28;;;;;;;19.01;44.65;96102.63;10410323;28;20634;-62
2023/03/19 11:38:03;;;;;;;14.73;7.55;;;;;;;18.60;46.32;96131.47;10408699;28;20240;-63
2023/03/19 11:43:27;;;;;;;13.00;7.00;;;;;;;18.55;46.49;96133.97;10425739;28;20667;-62
2023/03/19 11:48:46;;;;;;;14.38;6.82;;;;;;;19.15;46.04;96143.06;10409687;28;20228;-64
2023/03/19 11:53:55;;;;;;;13.32;7.50;;;;;;;19.21;45.78;96132.34;10410057;28;20204;-63
2023/03/19 11:59:11;;;;;;;14.93;7.50;;;;;;;19.30;46.89;96156.75;10409368;28;20216;-62
2023/03/19 12:04:33;;;;;;;15.18;7.20;;;;;;;20.28;44.24;96122.72;10432792;28;20235;-62
2023/03/19 12:09:52;;;;;;;15.30;7.95;;;;;;;19.95;44.08;96097.53;10417195;28;20316;-63
2023/03/19 12:15:13;;;;;;;18.95;7.85;;;;;;;20.85;42.71;96098.09;10417411;28;20201;-62
2023/03/19 12:20:31;;;;;;;14.40;7.07;;;;;;;21.15;42.01;96091.72;10415869;28;20193;-63
2023/03/19 12:25:52;;;;;;;14.23;7.05;;;;;;;20.75;42.68;96092.59;10415573;28;20238;-63
2023/03/19 12:31:02;;;;;;;12.85;7.88;;;;;;;20.14;46.01;96164.69;10416881;28;20226;-58
2023/03/19 12:36:07;;;;;;;16.38;9.10;;;;;;;18.85;47.40;96157.94;10416390;28;20212;-63
2023/03/19 12:41:12;;;;;;;16.92;9.80;;;;;;;17.75;50.49;96191.16;10412858;28;20659;-62
2023/03/19 12:46:16;;;;;;;16.30;9.55;;;;;;;18.57;48.10;96163.72;10416249;28;20225;-62
2023/03/19 12:51:21;;;;;;;17.88;9.30;;;;;;;18.70;47.17;96144.22;10414706;28;20570;-62
2023/03/19 12:56:33;;;;;;;15.05;8.57;;;;;;;19.57;47.38;96181.09;10415797;28;20208;-61
2023/03/19 13:01:41;;;;;;;18.75;9.38;;;;;;;19.11;48.06;96171.94;10415471;28;20667;-62
2023/03/19 13:06:51;;;;;;;12.05;5.93;;;;;;;19.32;46.75;96170.59;10430787;28;20209;-63
2023/03/19 13:12:00;;;;;;;9.85;6.15;;;;;;;18.45;48.34;96176.94;10430735;28;20291;-63
2023/03/19 13:17:33;;;;;;;9.75;5.63;;;;;;;18.73;48.62;96191.53;10430364;28;20716;-63
2023/03/19 13:22:36;;;;;;;9.73;5.82;;;;;;;18.49;49.42;96209.94;10401450;28;20205;-63
2023/03/19 13:27:36;;;;;;;8.23;5.05;;;;;;;17.95;51.35;96230.78;10417776;28;20237;-61
2023/03/19 13:32:52;;;;;;;8.30;5.18;;;;;;;17.36;52.79;96248.59;10414573;28;20193;-61
2023/03/19 13:37:59;;;;;;;7.18;4.30;;;;;;;17.43;53.61;96273.22;10429401;28;20277;-61
2023/03/19 13:43:01;;;;;;;7.75;4.00;;;;;;;16.98;54.07;96267.88;10412691;28;20655;-60
2023/03/19 13:48:26;;;;;;;5.35;3.03;;;;;;;16.87;53.34;96252.66;10413058;28;20786;-61
2023/03/19 13:54:11;;;;;;;4.95;3.25;;;;;;;15.97;56.11;96288.28;10403802;28;20246;-61
2023/03/19 13:59:22;;;;;;;4.75;3.22;;;;;;;16.11;55.69;96288.28;10384215;28;20810;-59
2023/03/19 14:04:28;;;;;;;5.00;3.05;;;;;;;15.52;58.26;96323.03;10388365;28;20748;-60
2023/03/19 14:09:34;;;;;;;3.15;2.35;;;;;;;15.40;57.05;96302.69;10387713;28;20201;-61
2023/03/19 14:15:00;;;;;;;2.28;2.00;;;;;;;15.78;56.91;96295.13;10378765;28;20209;-61
2023/03/19 14:20:10;;;;;;;3.15;2.17;;;;;;;15.86;56.30;96294.97;10408529;28;20319;-60
2023/03/19 14:25:18;;;;;;;7.68;2.55;;;;;;;15.72;57.07;96301.19;10408505;28;20267;-60
2023/03/19 14:30:38;;;;;;;4.90;2.70;;;;;;;15.72;58.14;96316.22;10409057;28;20189;-61
2023/03/19 14:35:40;;;;;;;5.20;3.10;;;;;;;15.92;58.17;96314.47;10408536;28;20224;-60
2023/03/19 14:40:46;;;;;;;5.63;3.22;;;;;;;15.91;57.45;96298.81;10440230;28;20295;-61
2023/03/19 14:45:57;;;;;;;5.53;3.72;;;;;;;15.94;57.91;96304.53;10408001;28;20220;-61
2023/03/19 14:51:12;;;;;;;5.30;3.90;;;;;;;15.87;60.16;96343.31;10372272;28;20288;-60
2023/03/19 14:56:30;;;;;;;7.25;4.03;;;;;;;16.01;59.07;96331.75;10365845;28;20704;-61
2023/03/19 15:01:32;;;;;;;5.32;3.53;;;;;;;16.13;58.99;96329.34;10383222;28;20678;-61
2023/03/19 15:06:36;;;;;;;5.93;3.42;;;;;;;16.02;58.73;96328.09;10387249;28;20240;-59
2023/03/19 15:11:48;;;;;;;5.13;3.42;;;;;;;15.86;58.81;96324.03;10366404;28;20235;-60
2023/03/19 15:16:56;;;;;;;5.50;3.17;;;;;;;13.61;66.70;96419.56;10363042;28;20221;-59
2023/03/19 15:22:04;;;;;;;3.63;2.70;;;;;;;13.13;72.20;96425.97;10400835;28;20284;-60
2023/03/19 15:27:34;;;;;;;7.22;3.00;;;;;;;12.30;76.74;96417.13;10365439;28;20259;-60
2023/03/19 15:32:37;;;;;;;6.57;3.28;;;;;;;12.42;80.14;96417.50;10359953;28;20209;-59
2023/03/19 15:37:42;;;;;;;7.75;4.03;;;;;;;12.46;86.25;96413.56;10387684;28;20229;-61
2023/03/19 15:42:45;;;;;;;7.20;3.30;;;;;;;11.58;92.55;96421.56;10378106;28;20565;-61
2023/03/19 15:48:08;;;;;;;6.10;3.72;;;;;;;11.30;100.00;96423.78;10385157;28;20920;-59
2023/03/19 15:53:12;;;;;;;5.05;3.40;;;;;;;11.37;100.00;96418.69;10368007;28;20211;-60
2023/03/19 15:58:15;;;;;;;4.22;3.28;;;;;;;11.11;100.00;96424.16;10381890;28;20917;-61
2023/03/19 16:03:18;;;;;;;4.57;3.00;;;;;;;10.96;100.00;96422.19;10371536;28;20657;-60
2023/03/19 16:08:24;;;;;;;4.90;3.60;;;;;;;11.05;100.00;96423.00;10402761;28;20209;-58
2023/03/19 16:13:24;;;;;;;5.68;3.00;;;;;;;11.01;100.00;96432.19;10388619;28;20280;-58
2023/03/19 16:18:27;;;;;;;8.48;4.88;;;;;;;11.04;100.00;96443.19;10385762;28;20567;-60
2023/03/19 16:23:30;;;;;;;4.90;3.40;;;;;;;10.79;100.00;96452.03;10371943;28;20266;-61
2023/03/19 16:28:30;;;;;;;6.60;3.00;;;;;;;10.69;100.00;96453.03;10383518;28;20229;-59
2023/03/19 16:33:31;;;;;;;6.47;3.47;;;;;;;10.53;100.00;96459.09;10364703;28;20201;-60
2023/03/19 16:38:42;;;;;;;4.87;3.73;;;;;;;10.59;100.00;96465.44;10363993;28;20209;-60
2023/03/19 16:43:46;;;;;;;7.37;3.60;;;;;;;10.41;100.00;96467.41;10363377;28;20200;-61
2023/03/19 16:48:46;;;;;;;4.93;3.10;;;;;;;10.08;100.00;96468.13;10377022;28;20208;-62
2023/03/19 16:54:05;;;;;;;5.90;2.70;;;;;;;9.66;100.00;96486.44;10413431;28;20215;-62
2023/03/19 16:59:05;;;;;;;4.07;2.70;;;;;;;9.67;100.00;96481.03;10421144;28;20244;-62
2023/03/19 17:04:11;;;;;;;4.17;2.30;;;;;;;9.72;100.00;96486.63;10410074;28;20689;-61
2023/03/19 17:09:11;;;;;;;5.50;3.27;;;;;;;9.50;100.00;96492.41;10426930;28;20219;-62
2023/03/19 17:14:16;;;;;;;5.67;3.40;;;;;;;9.53;100.00;96495.53;10411805;28;20192;-63
2023/03/19 17:19:19;;;;;;;6.30;4.43;;;;;;;9.33;100.00;96491.50;10410997;28;20228;-61
2023/03/19 17:24:30;;;;;;;5.93;4.00;;;;;;;9.23;100.00;96500.25;10388762;28;20192;-63
2023/03/19 17:29:32;;;;;;;6.17;3.23;;;;;;;9.23;100.00;96495.03;10369564;28;20221;-60
2023/03/19 17:34:34;;;;;;;7.53;3.17;;;;;;;9.21;100.00;96499.56;10369899;28;20660;-61
2023/03/19 17:39:34;;;;;;;3.80;2.87;;;;;;;9.15;100.00;96502.78;10369420;28;20460;-61
2023/03/19 17:44:35;;;;;;;6.53;3.30;;;;;;;9.09;100.00;96509.44;10378116;28;20287;-61
2023/03/19 17:49:35;;;;;;;3.73;2.70;;;;;;;8.96;100.00;96503.81;10380935;28;20300;-62
2023/03/19 17:54:35;;;;;;;4.37;3.50;;;;;;;8.69;100.00;96507.34;10368576;28;20201;-62
2023/03/19 17:59:36;;;;;;;4.33;3.40;;;;;;;8.79;100.00;96509.84;10367505;28;20308;-62
2023/03/19 18:04:36;;;;;;;7.87;4.67;;;;;;;8.63;100.00;96513.16;10380356;28;20258;-62
2023/03/19 18:09:36;;;;;;;50.70;24.03;;;;;;;8.67;100.00;96504.06;10386873;28;20213;-62
2023/03/19 18:14:37;;;;;;;7.37;3.27;;;;;;;8.60;100.00;96514.25;10402533;28;20304;-63
2023/03/19 18:19:37;;;;;;;4.40;2.90;;;;;;;8.48;100.00;96515.47;10424147;22;20229;-62
2023/03/19 18:24:37;;;;;;;3.57;3.20;;;;;;;8.57;100.00;96504.13;10396922;28;20203;-64
2023/03/19 18:29:38;;;;;;;13.33;10.00;;;;;;;8.35;100.00;96510.56;10405510;28;20712;-64
2023/03/19 18:34:38;;;;;;;3.43;3.13;;;;;;;8.21;100.00;96510.09;10370758;28;20193;-64
2023/03/19 18:39:38;;;;;;;9.83;4.20;;;;;;;8.11;100.00;96516.34;10364041;28;20247;-64
2023/03/19 18:44:39;;;;;;;6.07;4.70;;;;;;;8.12;100.00;96518.81;10346620;28;20197;-62
2023/03/19 18:49:40;;;;;;;11.30;5.87;;;;;;;8.12;100.00;96520.59;10366565;28;20271;-64
2023/03/19 18:54:41;;;;;;;8.97;5.67;;;;;;;8.00;100.00;96527.81;10366692;28;20679;-63
2023/03/19 18:59:41;;;;;;;16.53;8.23;;;;;;;8.18;100.00;96520.84;10366251;28;20242;-63
2023/03/19 19:04:42;;;;;;;20.40;10.50;;;;;;;8.21;100.00;96524.94;10366370;28;20197;-61
2023/03/19 19:09:42;;;;;;;17.37;10.77;;;;;;;8.01;100.00;96525.03;10366265;28;20288;-63
2023/03/19 19:14:43;;;;;;;14.93;9.23;;;;;;;8.06;100.00;96527.22;10365926;28;20189;-63
2023/03/19 19:19:43;;;;;;;10.00;6.70;;;;;;;8.11;100.00;96534.59;10365179;28;20656;-63
2023/03/19 19:24:44;;;;;;;19.63;9.90;;;;;;;8.19;100.00;96538.13;10365602;28;20195;-63
2023/03/19 19:29:45;;;;;;;12.10;7.53;;;;;;;8.12;100.00;96542.28;10365374;28;20219;-63
2023/03/19 19:34:45;;;;;;;8.40;5.43;;;;;;;8.02;100.00;96537.13;10366582;28;20196;-62
2023/03/19 19:39:45;;;;;;;9.60;6.23;;;;;;;8.01;100.00;96530.25;10365040;28;20600;-62
2023/03/19 19:44:50;;;;;;;10.87;6.00;;;;;;;8.09;100.00;96534.75;10365899;28;20221;-63
2023/03/19 19:49:50;;;;;;;9.27;5.40;;;;;;;8.00;100.00;96533.03;10364961;28;20653;-63
2023/03/19 19:54:51;;;;;;;13.60;8.13;;;;;;;8.08;100.00;96540.13;10365291;28;20201;-63
2023/03/19 19:59:52;;;;;;;8.07;4.50;;;;;;;8.11;100.00;96535.41;10364855;28;20275;-60
2023/03/19 20:04:53;;;;;;;11.13;6.80;;;;;;;8.20;100.00;96539.75;10364837;28;20614;-62
2023/03/19 20:09:53;;;;;;;12.43;7.50;;;;;;;8.27;100.00;96533.97;10365044;28;20259;-63
2023/03/19 20:14:53;;;;;;;8.87;5.53;;;;;;;8.25;100.00;96535.91;10364493;28;20536;-63
2023/03/19 20:19:54;;;;;;;4.70;3.50;;;;;;;8.26;100.00;96535.75;10346518;28;20237;-63
2023/03/19 20:24:54;;;;;;;12.17;4.63;;;;;;;8.27;100.00;96537.41;10371156;28;20284;-62
2023/03/19 20:29:55;;;;;;;4.57;3.20;;;;;;;8.33;100.00;96543.81;10356601;28;20206;-62
2023/03/19 20:34:55;;;;;;;6.63;3.90;;;;;;;8.32;100.00;96540.38;10350730;28;20193;-63
2023/03/19 20:39:55;;;;;;;4.77;3.27;;;;;;;8.44;100.00;96540.19;10349924;28;20278;-61
2023/03/19 20:44:57;;;;;;;4.80;3.30;;;;;;;8.37;100.00;96537.34;10351943;28;20197;-62
2023/03/19 20:49:57;;;;;;;5.43;3.20;;;;;;;8.23;100.00;96543.06;10371131;28;20209;-63
2023/03/19 20:54:58;;;;;;;4.20;2.93;;;;;;;8.16;100.00;96543.66;10371093;28;20663;-62
2023/03/19 21:00:05;;;;;;;5.00;3.17;;;;;;;8.14;100.00;96539.53;10370669;28;20737;-62
2023/03/19 21:05:11;;;;;;;4.70;2.40;;;;;;;8.27;100.00;96544.41;10353166;28;20216;-62
2023/03/19 21:10:18;;;;;;;5.33;2.90;;;;;;;8.33;100.00;96541.19;10370345;28;20209;-63
2023/03/19 21:15:19;;;;;;;6.10;2.83;;;;;;;8.14;100.00;96545.56;10364544;28;20692;-62
2023/03/19 21:20:25;;;;;;;5.70;2.60;;;;;;;8.19;100.00;96545.97;10348881;28;20317;-61
2023/03/19 21:25:27;;;;;;;3.07;2.67;;;;;;;8.28;100.00;96539.03;10344920;28;20663;-61
2023/03/19 21:30:27;;;;;;;4.53;2.70;;;;;;;8.38;100.00;96539.00;10370404;28;20212;-64
2023/03/19 21:35:28;;;;;;;4.80;2.50;;;;;;;8.48;100.00;96531.94;10369304;28;20204;-62
2023/03/19 21:40:29;;;;;;;3.23;2.30;;;;;;;8.51;100.00;96534.25;10370009;28;20294;-63
2023/03/19 21:45:32;;;;;;;3.90;2.80;;;;;;;8.30;100.00;96533.66;10369582;28;20692;-63
2023/03/19 21:50:34;;;;;;;9.03;3.10;;;;;;;8.28;100.00;96539.03;10352318;28;20205;-62
2023/03/19 21:55:34;;;;;;;3.43;2.50;;;;;;;8.29;100.00;96543.28;10369400;28;20225;-64
2023/03/19 22:00:35;;;;;;;4.50;3.00;;;;;;;8.23;100.00;96538.66;10369141;28;20583;-64
2023/03/19 22:05:35;;;;;;;3.23;2.50;;;;;;;8.08;100.00;96532.28;10368296;28;20209;-61
2023/03/19 22:10:35;;;;;;;4.60;2.80;;;;;;;8.01;100.00;96532.88;10367488;28;20209;-64
2023/03/19 22:15:37;;;;;;;4.23;2.80;;;;;;;7.80;100.00;96532.28;10369152;28;20205;-63
2023/03/19 22:20:37;;;;;;;3.87;3.03;;;;;;;7.72;100.00;96533.00;10368142;28;20344;-64
2023/03/19 22:25:39;;;;;;;4.90;2.90;;;;;;;7.52;100.00;96536.63;10368928;28;20352;-63
2023/03/19 22:30:40;;;;;;;5.83;2.90;;;;;;;7.41;100.00;96545.44;10368372;28;20213;-65
2023/03/19 22:35:40;;;;;;;3.87;2.97;;;;;;;7.51;100.00;96543.63;10367908;28;20561;-64
2023/03/19 22:40:43;;;;;;;4.17;2.93;;;;;;;7.32;100.00;96549.72;10368098;28;20217;-62
2023/03/19 22:45:43;;;;;;;7.77;2.87;;;;;;;7.40;100.00;96546.41;10367125;28;20193;-63
2023/03/19 22:50:44;;;;;;;4.63;2.70;;;;;;;7.34;100.00;96549.56;10367684;28;20217;-63
2023/03/19 22:55:44;;;;;;;4.97;2.90;;;;;;;7.25;100.00;96553.84;10367106;28;20232;-59
2023/03/19 23:00:46;;;;;;;4.13;2.73;;;;;;;7.25;100.00;96546.03;10364871;28;20218;-60
2023/03/19 23:05:51;;;;;;;3.83;3.13;;;;;;;7.35;100.00;96552.03;10350473;28;20189;-59
2023/03/19 23:10:52;;;;;;;2.97;2.67;;;;;;;7.27;100.00;96557.94;10349034;28;20217;-62
2023/03/19 23:15:55;;;;;;;4.77;2.80;;;;;;;7.30;100.00;96552.47;10366694;28;20197;-63
2023/03/19 23:20:56;;;;;;;3.53;2.90;;;;;;;7.22;100.00;96562.75;10347950;28;20241;-61
2023/03/19 23:25:56;;;;;;;3.93;2.80;;;;;;;7.28;100.00;96550.94;10366357;28;20200;-61